createdAt,value
2018-09-01T05:08:59.608Z,9.90
2018-09-01T05:11:27.828Z,10.00
2018-09-01T05:13:56.065Z,10.00
2018-09-01T05:16:24.265Z,10.10
2018-09-01T05:18:52.535Z,10.00
2018-09-01T05:21:20.744Z,10.10
2018-09-01T05:23:49.038Z,10.10
2018-09-01T05:26:17.212Z,10.10
2018-09-01T05:28:45.457Z,10.20
2018-09-01T05:31:13.667Z,10.20
2018-09-01T05:33:41.871Z,10.20
2018-09-01T05:36:10.108Z,10.30
2018-09-01T05:38:38.319Z,10.30
2018-09-01T05:41:06.608Z,10.40
2018-09-01T05:43:34.854Z,10.30
2018-09-01T05:46:03.166Z,10.40
2018-09-01T05:48:31.429Z,10.50
2018-09-01T05:50:59.688Z,10.50
2018-09-01T05:53:27.925Z,10.60
2018-09-01T05:55:56.189Z,10.70
2018-09-01T05:58:24.423Z,10.80
2018-09-01T06:00:52.681Z,10.90
2018-09-01T06:03:20.913Z,10.90
2018-09-01T06:05:49.246Z,11.00
2018-09-01T06:08:17.902Z,11.10
2018-09-01T06:10:46.165Z,11.10
2018-09-01T06:13:14.396Z,11.20
2018-09-01T06:15:42.652Z,11.20
2018-09-01T06:18:10.900Z,11.30
2018-09-01T06:20:39.168Z,11.30
2018-09-01T06:23:07.421Z,11.40
2018-09-01T06:25:35.674Z,11.40
2018-09-01T06:28:11.246Z,11.60
2018-09-01T06:30:41.620Z,11.90
2018-09-01T06:33:09.885Z,12.20
2018-09-01T06:35:38.149Z,12.60
2018-09-01T06:38:06.432Z,13.00
2018-09-01T06:40:34.682Z,13.30
2018-09-01T06:43:03.011Z,13.60
2018-09-01T06:45:31.217Z,13.90
2018-09-01T06:47:59.477Z,14.00
2018-09-01T06:50:27.737Z,14.30
2018-09-01T06:52:55.977Z,14.50
2018-09-01T06:55:24.242Z,14.70
2018-09-01T06:57:52.493Z,14.80
2018-09-01T07:00:23.132Z,15.20
2018-09-01T07:02:52.768Z,15.50
2018-09-01T07:05:21.008Z,16.00
2018-09-01T07:07:49.451Z,16.20
2018-09-01T07:10:17.700Z,16.30
2018-09-01T07:12:45.949Z,16.50
2018-09-01T07:15:14.422Z,16.90
2018-09-01T07:17:43.053Z,17.20
2018-09-01T07:20:11.328Z,17.50
2018-09-01T07:22:39.745Z,17.50
2018-09-01T07:25:08.005Z,17.50
2018-09-01T07:27:36.264Z,17.50
2018-09-01T07:30:04.622Z,17.50
2018-09-01T07:32:32.836Z,17.50
2018-09-01T07:35:01.126Z,17.40
2018-09-01T07:37:29.376Z,17.50
2018-09-01T07:39:57.625Z,17.60
2018-09-01T07:42:25.877Z,17.80
2018-09-01T07:44:54.128Z,18.00
2018-09-01T07:47:22.397Z,18.10
2018-09-01T07:49:50.694Z,18.20
2018-09-01T07:52:18.948Z,18.30
2018-09-01T07:54:47.212Z,18.30
2018-09-01T07:57:15.496Z,18.50
2018-09-01T07:59:43.748Z,18.70
2018-09-01T08:02:12.049Z,19.00
2018-09-01T08:04:40.309Z,19.20
2018-09-01T08:07:08.611Z,19.40
2018-09-01T08:09:36.849Z,19.40
2018-09-01T08:12:05.132Z,19.50
2018-09-01T08:14:33.423Z,19.50
2018-09-01T08:17:01.741Z,19.60
2018-09-01T08:19:30.045Z,19.70
2018-09-01T08:21:58.308Z,19.80
2018-09-01T08:24:26.548Z,20.00
2018-09-01T08:26:54.817Z,20.30
2018-09-01T08:29:23.081Z,20.40
2018-09-01T08:31:51.340Z,20.50
2018-09-01T08:34:19.632Z,20.70
2018-09-01T08:36:47.892Z,20.80
2018-09-01T08:39:16.145Z,21.00
2018-09-01T08:41:44.396Z,21.10
2018-09-01T08:44:12.635Z,21.40
2018-09-01T08:46:41.197Z,21.80
2018-09-01T08:49:09.431Z,21.90
2018-09-01T08:51:37.688Z,21.90
2018-09-01T08:54:06.043Z,22.00
2018-09-01T08:56:34.332Z,22.10
2018-09-01T08:59:02.585Z,22.10
2018-09-01T09:01:30.896Z,22.10
2018-09-01T09:03:59.124Z,22.10
2018-09-01T09:06:27.383Z,22.10
2018-09-01T09:08:55.621Z,21.80
2018-09-01T09:11:23.883Z,21.80
2018-09-01T09:13:52.112Z,21.70
2018-09-01T09:16:20.365Z,21.60
2018-09-01T09:18:48.616Z,21.50
2018-09-01T09:21:16.881Z,21.40
2018-09-01T09:23:45.145Z,21.10
2018-09-01T09:26:13.401Z,21.10
2018-09-01T09:28:41.663Z,21.00
2018-09-01T09:31:09.920Z,21.00
2018-09-01T09:33:38.173Z,21.10
2018-09-01T09:36:06.421Z,21.10
2018-09-01T09:38:34.681Z,21.20
2018-09-01T09:41:02.988Z,21.20
2018-09-01T09:43:31.232Z,21.20
2018-09-01T09:45:59.484Z,21.20
2018-09-01T09:48:27.731Z,21.20
2018-09-01T09:50:56.043Z,21.20
2018-09-01T09:53:24.288Z,21.20
2018-09-01T09:55:52.516Z,21.20
2018-09-01T09:58:20.881Z,21.10
2018-09-01T10:00:54.396Z,21.10
2018-09-01T10:03:22.675Z,21.10
2018-09-01T10:05:50.909Z,21.00
2018-09-01T10:08:19.172Z,21.20
2018-09-01T10:10:47.409Z,21.30
2018-09-01T10:13:15.640Z,21.20
2018-09-01T10:15:43.896Z,21.30
2018-09-01T10:18:12.152Z,21.40
2018-09-01T10:20:40.466Z,21.40
2018-09-01T10:23:08.689Z,21.40
2018-09-01T10:25:36.909Z,21.30
2018-09-01T10:28:05.163Z,21.30
2018-09-01T10:30:33.480Z,21.30
2018-09-01T10:33:01.744Z,21.50
2018-09-01T10:35:29.989Z,21.50
2018-09-01T10:37:58.240Z,21.50
2018-09-01T10:40:26.473Z,21.40
2018-09-01T10:42:54.723Z,21.40
2018-09-01T10:45:22.948Z,21.50
2018-09-01T10:47:51.204Z,21.40
2018-09-01T10:50:19.452Z,21.30
2018-09-01T10:52:47.702Z,21.30
2018-09-01T10:55:15.956Z,21.30
2018-09-01T10:57:44.409Z,21.20
2018-09-01T11:00:12.665Z,21.10
2018-09-01T11:02:40.930Z,21.10
2018-09-01T11:05:09.224Z,21.10
2018-09-01T11:07:37.457Z,21.30
2018-09-01T11:10:05.700Z,21.30
2018-09-01T11:12:33.952Z,21.30
2018-09-01T11:15:02.210Z,21.40
2018-09-01T11:17:30.489Z,21.40
2018-09-01T11:19:58.767Z,21.30
2018-09-01T11:22:27.028Z,21.30
2018-09-01T11:24:55.289Z,21.20
2018-09-01T11:27:23.557Z,21.20
2018-09-01T11:29:51.828Z,21.10
2018-09-01T11:32:20.101Z,21.00
2018-09-01T11:34:48.365Z,21.00
2018-09-01T11:37:16.600Z,21.00
2018-09-01T11:39:44.845Z,20.90
2018-09-01T11:44:47.542Z,21.00
2018-09-01T11:47:15.817Z,20.90
2018-09-01T11:49:44.232Z,20.80
2018-09-01T11:52:12.489Z,20.90
2018-09-01T11:54:40.745Z,20.90
2018-09-01T11:57:09.024Z,20.90
2018-09-01T11:59:37.280Z,21.00
2018-09-01T12:02:05.545Z,21.10
2018-09-01T12:04:33.952Z,21.00
2018-09-01T12:07:02.188Z,21.10
2018-09-01T12:09:30.436Z,21.20
2018-09-01T12:11:58.697Z,21.30
2018-09-01T12:14:26.976Z,21.40
2018-09-01T12:16:55.201Z,21.30
2018-09-01T12:19:23.480Z,21.40
2018-09-01T12:21:51.716Z,21.40
2018-09-01T12:24:19.959Z,21.40
2018-09-01T12:26:48.199Z,21.30
2018-09-01T12:29:16.444Z,21.30
2018-09-01T12:31:44.680Z,21.20
2018-09-01T12:34:12.936Z,21.10
2018-09-01T12:36:41.189Z,21.10
2018-09-01T12:39:09.435Z,21.10
2018-09-01T12:41:37.670Z,21.10
2018-09-01T12:44:05.972Z,21.00
2018-09-01T12:46:34.208Z,20.90
2018-09-01T12:49:02.512Z,20.80
2018-09-01T12:51:30.736Z,20.70
2018-09-01T12:53:58.989Z,20.60
2018-09-01T12:56:27.741Z,20.60
2018-09-01T12:58:56.013Z,20.50
2018-09-01T13:01:24.256Z,20.40
2018-09-01T13:03:52.507Z,20.40
2018-09-01T13:06:20.740Z,20.30
2018-09-01T13:08:48.986Z,20.20
2018-09-01T13:11:17.216Z,20.20
2018-09-01T13:13:45.497Z,20.20
2018-09-01T13:16:13.748Z,20.10
2018-09-01T13:18:42.008Z,20.20
2018-09-01T13:21:10.259Z,20.20
2018-09-01T13:23:38.493Z,20.30
2018-09-01T13:26:06.752Z,20.30
2018-09-01T13:28:34.992Z,20.40
2018-09-01T13:31:03.256Z,20.40
2018-09-01T13:33:31.501Z,20.40
2018-09-01T13:35:59.771Z,20.40
2018-09-01T13:38:28.040Z,20.50
2018-09-01T13:40:56.300Z,20.50
2018-09-01T13:43:24.525Z,20.50
2018-09-01T13:45:52.827Z,20.60
2018-09-01T13:48:21.033Z,20.60
2018-09-01T13:50:49.292Z,20.60
2018-09-01T13:53:17.555Z,20.60
2018-09-01T13:55:45.820Z,20.50
2018-09-01T13:58:14.049Z,20.40
2018-09-01T14:00:42.304Z,20.40
2018-09-01T14:03:10.523Z,20.40
2018-09-01T14:05:38.767Z,20.40
2018-09-01T14:08:06.999Z,20.30
2018-09-01T14:10:35.256Z,20.30
2018-09-01T14:13:03.520Z,20.40
2018-09-01T14:15:31.801Z,20.30
2018-09-01T14:18:00.085Z,20.40
2018-09-01T14:20:28.401Z,20.40
2018-09-01T14:22:56.704Z,20.30
2018-09-01T14:25:25.069Z,20.40
2018-09-01T14:27:53.300Z,20.40
2018-09-01T14:30:21.557Z,20.40
2018-09-01T14:32:49.803Z,20.40
2018-09-01T14:35:18.072Z,20.30
2018-09-01T14:37:46.312Z,20.30
2018-09-01T14:40:14.569Z,20.10
2018-09-01T14:42:42.808Z,20.00
2018-09-01T14:45:11.081Z,19.90
2018-09-01T14:47:39.339Z,19.80
2018-09-01T14:50:07.596Z,19.70
2018-09-01T14:52:35.819Z,19.60
2018-09-01T14:55:04.087Z,19.50
2018-09-01T14:57:32.329Z,19.50
2018-09-01T15:00:00.581Z,19.40
2018-09-01T15:02:28.814Z,19.40
2018-09-01T15:04:57.066Z,19.30
2018-09-01T15:07:25.324Z,19.30
2018-09-01T15:09:53.584Z,19.20
2018-09-01T15:12:21.936Z,19.20
2018-09-01T15:14:50.171Z,19.20
2018-09-01T15:17:18.408Z,19.20
2018-09-01T15:19:46.685Z,19.10
2018-09-01T15:22:14.989Z,19.10
2018-09-01T15:24:43.232Z,19.00
2018-09-01T15:27:11.480Z,19.00
2018-09-01T15:29:39.749Z,18.90
2018-09-01T15:32:08.022Z,19.00
2018-09-01T15:34:36.264Z,18.90
2018-09-01T15:37:04.521Z,18.80
2018-09-01T15:39:32.752Z,18.80
2018-09-01T15:42:01.005Z,18.70
2018-09-01T15:44:29.228Z,18.80
2018-09-01T15:46:57.474Z,18.70
2018-09-01T15:49:25.721Z,18.70
2018-09-01T15:51:54.013Z,18.70
2018-09-01T15:54:22.249Z,18.60
2018-09-01T15:56:50.491Z,18.50
2018-09-01T15:59:18.736Z,18.50
2018-09-01T16:01:47.844Z,18.40
2018-09-01T16:04:16.081Z,18.40
2018-09-01T16:06:44.345Z,18.30
2018-09-01T16:09:12.584Z,18.30
2018-09-01T16:11:40.972Z,18.30
2018-09-01T16:14:09.241Z,18.30
2018-09-01T16:16:37.496Z,18.20
2018-09-01T16:19:05.752Z,18.10
2018-09-01T16:21:34.007Z,18.10
2018-09-01T16:24:02.245Z,18.00
2018-09-01T16:26:30.504Z,17.90
2018-09-01T16:28:58.736Z,17.90
2018-09-01T16:31:26.974Z,17.80
2018-09-01T16:33:55.240Z,17.70
2018-09-01T16:36:23.499Z,17.60
2018-09-01T16:38:51.737Z,17.60
2018-09-01T16:41:19.987Z,17.50
2018-09-01T16:43:48.213Z,17.40
2018-09-01T16:46:16.461Z,17.30
2018-09-01T16:48:44.713Z,17.30
2018-09-01T16:51:12.986Z,17.20
2018-09-01T16:53:41.221Z,17.20
2018-09-01T16:56:09.464Z,17.10
2018-09-01T16:58:37.712Z,17.10
2018-09-01T17:01:06.043Z,17.00
2018-09-01T17:03:34.220Z,16.90
2018-09-01T17:06:02.452Z,16.90
2018-09-01T17:08:30.766Z,16.80
2018-09-01T17:10:58.971Z,16.70
2018-09-01T17:13:27.210Z,16.70
2018-09-01T17:15:55.436Z,16.60
2018-09-01T17:18:23.709Z,16.60
2018-09-01T17:20:51.939Z,16.50
2018-09-01T17:23:20.193Z,16.50
2018-09-01T17:25:48.424Z,16.40
2018-09-01T17:28:16.664Z,16.40
2018-09-01T17:30:44.895Z,16.30
2018-09-01T17:33:13.149Z,16.30
2018-09-01T17:35:41.388Z,16.20
2018-09-01T17:38:09.643Z,16.20
2018-09-01T17:40:37.896Z,16.20
2018-09-01T17:43:06.242Z,16.20
2018-09-01T17:45:34.479Z,16.10
2018-09-01T17:48:02.741Z,16.20
2018-09-01T17:50:30.975Z,16.10
2018-09-01T17:52:59.216Z,16.10
2018-09-01T17:55:27.453Z,16.00
2018-09-01T17:57:55.705Z,16.00
2018-09-01T18:00:23.929Z,16.00
2018-09-01T18:02:52.177Z,15.90
2018-09-01T18:05:20.411Z,15.90
2018-09-01T18:07:48.663Z,15.80
2018-09-01T18:10:16.904Z,15.80
2018-09-01T18:12:45.157Z,15.70
2018-09-01T18:15:13.385Z,15.70
2018-09-01T18:17:41.636Z,15.70
2018-09-01T18:20:09.890Z,15.70
2018-09-01T18:22:38.169Z,15.60
2018-09-01T18:25:06.404Z,15.60
2018-09-01T18:27:34.763Z,15.60
2018-09-01T18:30:02.984Z,15.60
2018-09-01T18:32:31.369Z,15.50
2018-09-01T18:34:59.793Z,15.50
2018-09-01T18:37:28.037Z,15.50
2018-09-01T18:39:56.277Z,15.50
2018-09-01T18:42:24.525Z,15.50
2018-09-01T18:44:52.767Z,15.40
2018-09-01T18:47:21.023Z,15.40
2018-09-01T18:49:49.267Z,15.40
2018-09-01T18:52:17.510Z,15.40
2018-09-01T18:54:45.752Z,15.30
2018-09-01T18:57:14.011Z,15.30
2018-09-01T18:59:42.240Z,15.30
2018-09-01T19:02:10.471Z,15.20
2018-09-01T19:04:38.748Z,15.20
2018-09-01T19:07:07.004Z,15.20
2018-09-01T19:09:35.269Z,15.10
2018-09-01T19:12:03.512Z,15.10
2018-09-01T19:14:32.204Z,15.10
2018-09-01T19:17:00.448Z,15.00
2018-09-01T19:19:28.716Z,15.00
2018-09-01T19:21:56.944Z,15.10
2018-09-01T19:24:25.205Z,15.00
2018-09-01T19:26:53.473Z,15.00
2018-09-01T19:29:21.833Z,15.00
2018-09-01T19:31:50.062Z,15.00
2018-09-01T19:34:18.360Z,14.90
2018-09-01T19:36:46.769Z,15.00
2018-09-01T19:39:15.009Z,14.90
2018-09-01T19:41:43.552Z,14.90
2018-09-01T19:44:11.877Z,14.90
